Weather observations for the past three days for
Perry Municipal Airport
Metric (Imperial)
Date Time (cdt) Wind (kph) Vis. (km) Weather Sky Cond. Temperature (ºC) Relative Humidity Wind Chill (°C) Heat Index (°C) Pressure Precipitation (cm)
Air Dwpt 6 hour altimeter (cm) sea level (mb) 1 hr 3 hr 6 hr
Max. Min.
04 02:15 S 7 4.83 Fair with Haze CLR 10.5 2.6 58% 75.31 0.0
04 01:55 S 6 4.83 Fair with Haze CLR 10.3 2.6 59% 75.34 0.0
04 01:35 SW 11 4.02 Fair with Haze CLR 10.4 2.6 59% 75.36 0.0
04 01:15 SW 13 4.02 Fair with Haze CLR 10.3 2.1 57% 75.39 0.0
04 00:55 Calm 4.02 Fair with Haze CLR 12.1 1.5 49% 75.41 0.0
04 00:35 S 7 4.02 Fair with Haze CLR 11.2 1.7 52% 75.41 0.0
04 00:15 SW 7 4.83 Fair with Haze CLR 11.4 1.2 50% 75.41 0.0
03 23:55 SW 9 6.44 Fair with Haze CLR 11.8 1.3 49% 75.44 0.0
03 23:35 SW 9 4.83 Fair with Haze CLR 12.3 1.1 47% 75.46 0.0
03 23:15 SW 7 4.83 Fair with Haze CLR 12.1 0.8 46% 75.46 0.0
03 22:55 SW 11 4.83 Fair with Haze CLR 12.1 0.8 46% 75.49 0.0
03 22:35 SW 13 4.83 Fair with Haze CLR 11.8 0.8 47% 75.49 0.0
03 22:15 SW 11 4.83 Fair with Haze CLR 12.1 0.3 45% 75.51 0.0
03 21:55 W 17 6.44 Fair with Haze CLR 13 0 41% 75.51 0.0
03 21:35 W 17 4.83 Fair with Haze CLR 13.8 -0.3 38% 75.51 0.0
03 21:15 W 15 6.44 Fair with Haze CLR 13.9 -0.4 38% 75.51 0.0
03 20:55 W 17 8.05 Fair with Haze CLR 14.7 -0.2 36% 75.51 0.0
03 20:35 W 17 4.83 Fair with Haze CLR 15.9 -0.4 33% 75.51 0.0
03 20:15 W 17 4.83 Fair with Haze CLR 17.9 -0.9 28% 75.51 0.0
03 19:55 W 17 6.44 Fair with Haze CLR 20.1 -1.1 24% 75.51 0.0
03 19:35 W 17 12.87 Fair CLR 22 -2.4 19% 75.51 0.0
03 19:15 NW 11 16.09 Fair CLR 23 -2.3 18% 75.51 0.0
03 18:55 W 19 16.09 Fair CLR 23.3 -2.5 18% 75.51 0.0
03 18:35 NW 20 16.09 Fair CLR 23.8 -1.4 19% 75.54 0.0
03 18:15 W 17 14.48 Fair CLR 24 -1.4 19% 24 75.54 0.0
03 17:55 N 15 14.48 Fair CLR 23.7 -1.5 19% 75.54 0.0
03 17:35 NW 24 16.09 Fair CLR 24.7 -2 17% 25 75.54 0.0
03 17:15 NW 15 16.09 Fair CLR 24.4 -2.3 17% 24 75.57 0.0
03 16:55 N 15 16.09 Fair CLR 23.5 -1.3 19% 75.57 0.0
03 16:35 NW 24 G 33 16.09 Fair CLR 23.9 -3.1 16% 24 75.57 0.0
03 16:15 N 26 G 33 14.48 Fair CLR 23.2 -0.2 21% 75.57 0.0
03 15:55 NW 31 16.09 A Few Clouds FEW280 24.6 -1.1 18% 25 75.57 0.0
03 15:35 NW 20 G 41 16.09 Fair CLR 24.4 -0.3 20% 25 75.57 0.0
03 15:15 NW 24 G 37 16.09 Fair CLR 24.3 -0.4 20% 25 75.59 0.0
03 14:55 NW 24 G 33 16.09 Fair CLR 24.1 -0.7 19% 24 75.62 0.0
03 14:35 NW 26 G 37 16.09 Fair CLR 24.5 -0.2 20% 25 75.62 0.0
03 14:15 NW 28 16.09 Fair CLR 24.2 -1.2 19% 24 75.62 0.0
03 13:35 NW 26 G 43 16.09 Fair CLR 24.1 0.2 21% 25 75.62 0.0
03 13:15 NW 31 G 44 16.09 A Few Clouds FEW210 23.2 0.8 23% 75.64 0.0
03 12:55 NW 28 16.09 A Few Clouds FEW200 23.7 1 22% 75.64 0.0
03 12:35 NW 37 G 46 16.09 A Few Clouds and Breezy FEW140 22.9 0.9 23% 75.64 0.0
03 12:15 NW 28 G 37 16.09 Partly Cloudy FEW140 SCT200 21.7 1.4 26% 75.62 0.0
03 11:55 NW 31 G 41 16.09 Partly Cloudy SCT200 21.7 0.8 25% 75.67 0.0
03 11:35 N 28 16.09 Fair CLR 22 1.7 26% 75.67 0.0
03 11:15 N 26 16.09 Fair CLR 21.7 3.1 30% 75.64 0.0
03 10:55 NW 30 16.09 Fair CLR 21.6 2.1 28% 75.64 0.0
03 10:35 NW 30 G 35 16.09 Fair CLR 21.1 1.9 28% 75.64 0.0
03 10:15 NW 28 16.09 Fair CLR 20 2.5 31% 75.64 0.0
03 09:55 W 30 16.09 Fair CLR 19.1 3 34% 75.64 0.0
03 09:35 W 31 16.09 Fair CLR 18.6 2.8 35% 75.64 0.0
03 09:15 W 35 16.09 Fair and Breezy CLR 17.2 2.4 37% 75.64 0.0
03 08:55 W 37 16.09 Fair and Breezy CLR 16.7 2.2 38% 75.64 0.0
03 08:35 W 35 16.09 Fair and Breezy CLR 15.7 2 40% 75.64 0.0
03 08:15 W 33 16.09 Fair and Breezy CLR 14.5 1.7 42% 75.64 0.0
03 07:35 SW 30 16.09 Fair CLR 12 1.4 49% 75.62 0.0
03 07:15 SW 28 14.48 Fair CLR 11.1 1.2 51% 75.64 0.0
03 06:55 SW 24 4.83 A Few Clouds with Haze FEW130 10.7 0.7 50% 75.67 0.0
03 06:35 SW 24 4.83 Mostly Cloudy with Haze BKN130 11.4 0.7 48% 75.64 0.0
03 06:15 SW 30 4.83 Mostly Cloudy with Haze BKN140 BKN160 11.7 0.7 47% 75.67 0.0
03 05:55 SW 15 6.44 Mostly Cloudy with Haze BKN140 9.8 0.9 54% 8 75.69 0.0
03 05:35 W 11 9.66 Partly Cloudy with Haze SCT150 8.9 0.9 58% 7 75.74 0.0
03 05:15 S 7 6.44 Mostly Cloudy with Haze BKN140 BKN160 10.2 0.8 52% 75.69 0.0
03 04:55 S 11 6.44 Overcast with Haze OVC130 11.1 0.4 48% 75.69 0.0
03 04:35 S 13 6.44 Overcast with Haze OVC130 11.1 0.5 48% 75.72 0.0
03 04:15 S 13 6.44 Mostly Cloudy with Haze BKN130 BKN150 11.1 0.4 48% 75.72 0.0
03 03:55 S 9 6.44 Mostly Cloudy with Haze SCT130 BKN150 11.2 0.3 47% 75.74 0.0
03 03:35 S 11 6.44 Overcast with Haze BKN130 OVC150 11.4 0.3 47% 75.77 0.0
03 03:15 S 11 6.44 Overcast with Haze OVC120 10.9 0.3 48% 75.79 0.0
03 02:55 S 13 8.05 Overcast with Haze OVC130 10.2 0.3 51% 75.79 0.0
03 02:35 S 11 8.05 Overcast with Haze FEW095 OVC120 9.9 0.2 51% 9 75.82 0.0
03 02:15 S 15 8.05 Overcast with Haze BKN120 OVC140 9.9 0 50% 8 75.84 0.0
03 01:55 S 17 8.05 Partly Cloudy with Haze SCT140 9.8 -0.3 50% 8 75.84 0.0
03 01:35 S 17 8.05 Partly Cloudy with Haze SCT130 SCT180 10 -0.7 48% 8 75.87 0.0
03 01:15 S 19 8.05 Mostly Cloudy with Haze BKN140 BKN170 10.3 -0.5 47% 75.87 0.0
03 00:55 S 13 8.05 Partly Cloudy with Haze FEW120 SCT150 10 -0.5 48% 8 75.9 0.0
03 00:35 S 13 9.66 A Few Clouds with Haze FEW120 10.3 -0.8 46% 75.95 0.0
03 00:15 S 13 9.66 Fair with Haze CLR 10.3 -0.5 47% 75.95 0.0
02 23:55 S 15 9.66 Fair with Haze CLR 10.4 -0.5 47% 75.95 0.0
02 23:35 S 13 9.66 A Few Clouds with Haze FEW120 11 -0.5 45% 75.97 0.0
02 23:15 S 13 9.66 A Few Clouds with Haze FEW120 10.4 -0.1 48% 75.97 0.0
02 22:55 S 13 11.27 Fair CLR 10.1 0.3 51% 76 0.0
02 22:35 S 11 9.66 Fair with Haze CLR 11.2 -0.1 46% 76.02 0.0
02 22:15 S 11 9.66 A Few Clouds with Haze FEW120 11.8 -0.4 43% 76.05 0.0
02 21:55 S 9 11.27 A Few Clouds FEW110 12.1 -0.5 42% 76.05 0.0
02 21:35 S 9 11.27 Fair CLR 13.2 -0.8 38% 76.07 0.0
02 21:15 S 11 11.27 A Few Clouds FEW160 13.5 -1.1 37% 76.07 0.0
02 20:55 S 9 12.87 A Few Clouds FEW130 13.5 -1.2 36% 76.07 0.0
02 20:35 S 13 9.66 Mostly Cloudy with Haze BKN130 12.4 -1.3 39% 76.07 0.0
02 20:15 SW 11 11.27 A Few Clouds FEW140 13.8 -1.8 34% 76.1 0.0
02 19:55 SW 13 12.87 Fair CLR 15.9 -3 27% 76.1 0.0
02 19:35 SW 15 14.48 A Few Clouds FEW130 17.1 -3.5 24% 76.1 0.0
02 19:15 SW 15 16.09 Fair CLR 17.7 -3.7 23% 76.1 0.0
02 18:55 W 11 16.09 Fair CLR 17.5 -4.4 22% 76.12 0.0
02 18:35 W 15 16.09 Fair CLR 18.1 -4.5 21% 76.15 0.0
02 18:15 W 13 16.09 Fair CLR 17.8 -4.9 21% 76.15 0.0
02 17:55 W 20 16.09 Fair CLR 18.3 -4.7 21% 76.17 0.0
02 17:35 SW 19 16.09 Fair CLR 18.4 -4.1 21% 76.17 0.0
02 17:15 W 22 16.09 Fair CLR 18.4 -4.2 21% 76.2 0.0
02 16:55 NW 13 16.09 Fair CLR 18.6 -4.5 21% 76.2 0.0
02 16:35 SW 17 16.09 Fair CLR 17.9 -5 21% 76.23 0.0
02 16:15 W 15 16.09 Fair CLR 17.5 -4.6 22% 76.25 0.0
02 15:55 W 13 G 31 16.09 Fair CLR 17.6 -5 21% 76.28 0.0
02 15:35 NW 17 16.09 Fair CLR 17.6 -3.5 24% 76.3 0.0
02 15:15 W 24 16.09 Fair CLR 17.6 -3.9 23% 76.3 0.0
02 14:55 Vrbl 6 16.09 Fair CLR 16.6 -4.1 24% 76.35 0.0
02 14:35 Vrbl 7 16.09 Fair CLR 16.4 -4 25% 76.35 0.0
02 14:15 W 17 16.09 A Few Clouds FEW360 16.7 -3.4 25% 76.38 0.0
02 13:55 W 13 16.09 Fair CLR 16.8 -3 26% 76.4 0.0
02 13:35 NW 15 16.09 Fair CLR 15.8 -4.3 25% 76.43 0.0
02 13:15 NW 13 G 26 16.09 Fair CLR 15.5 -4.5 25% 76.45 0.0
02 12:55 NW 15 16.09 Fair CLR 15.3 -4.1 26% 76.45 0.0
02 12:35 Calm 16.09 Fair CLR 14.2 -4.4 27% 76.48 0.0
02 12:15 Vrbl 9 16.09 Fair CLR 14.2 -3.5 29% 76.5 0.0
02 11:55 W 13 16.09 Fair CLR 13.4 -4.2 29% 76.5 0.0
02 11:35 N 7 16.09 Fair CLR 12.5 -3.7 32% 76.53 0.0
02 11:15 W 15 16.09 Fair CLR 13 -3.6 32% 76.53 0.0
02 10:55 Vrbl 11 16.09 Fair CLR 12.2 -4.2 32% 76.53 0.0
02 10:35 Calm 16.09 Fair CLR 11.9 -3.9 33% 76.53 0.0
02 10:15 NW 13 16.09 Fair CLR 11.8 -3.8 34% 76.56 0.0
02 09:55 Calm 14.48 Fair CLR 10.9 -3.6 36% 76.56 0.0
02 09:35 Vrbl 6 14.48 Fair CLR 10.7 -3.7 36% 76.56 0.0
02 09:15 Vrbl 6 14.48 Fair CLR 10 -2 43% 76.58 0.0
02 08:55 NW 6 14.48 Fair CLR 8.7 -0.7 52% 76.58 0.0
02 08:35 NW 7 14.48 Fair CLR 7.8 -0.2 57% 7 76.58 0.0
02 08:15 Calm 14.48 Fair CLR 6.1 -0.2 64% 76.56 0.0
02 07:55 NW 7 12.87 Fair CLR 5.1 -0.5 67% 4 76.56 0.0
02 07:35 NW 7 12.87 Fair CLR 3.8 -0.2 75% 2 76.56 0.0
02 07:15 NW 6 11.27 Fair CLR 2.2 -0.7 81% 76.53 0.0
02 06:55 NW 9 9.66 Fog/Mist CLR 0.5 -1.3 88% -2 76.53 0.0
02 06:35 NW 13 9.66 Fog/Mist CLR -0.7 -2.2 90% -4 76.53 0.0
02 06:15 NW 11 9.66 Fog/Mist CLR -0.8 -2.2 90% -4 76.53 0.0
02 05:55 NW 11 11.27 Fair CLR -0.9 -2.3 90% -4 76.5 0.0
02 05:35 NW 11 11.27 Fair CLR -1 -2.4 90% -4 76.5 0.0
02 05:15 W 11 12.87 Fair CLR -0.7 -2.1 90% -4 76.48 0.0
02 04:55 NW 7 12.87 Fair CLR -0.8 -2.3 90% -3 76.48 0.0
02 04:35 NW 9 12.87 Fair CLR -0.8 -2.1 91% -4 76.48 0.0
02 04:15 NW 7 12.87 Fair CLR -0.5 -1.9 90% -3 76.48 0.0
02 03:55 NW 9 12.87 Fair CLR 0 -1.6 89% -3 76.48 0.0
02 03:35 NW 11 12.87 Fair CLR 0.4 -1.6 87% -3 76.48 0.0
02 03:15 NW 9 12.87 Fair CLR 0.1 -1.7 88% -3 76.45 0.0
02 02:55 NW 7 12.87 Fair CLR 0.6 -1.7 85% -1 76.48 0.0
02 02:35 NW 11 14.48 Fair CLR 1.4 -1.5 81% -2 76.48 0.0
02 02:15 W 11 14.48 Fair CLR 1.8 -1.4 80% -1 76.48 0.0
02 01:55 N 9 14.48 Fair CLR 2.6 -1.5 75% 0 76.48 0.0
02 01:35 N 9 14.48 Fair CLR 3.1 -1.4 73% 1 76.48 0.0
02 01:15 NW 11 14.48 Fair CLR 3.2 -1.2 73% 1 76.48 0.0
02 00:55 NW 9 14.48 Fair CLR 3.3 -1.2 73% 1 76.48 0.0
02 00:35 NW 11 14.48 Fair CLR 3.5 -1.1 72% 1 76.48 0.0
02 00:15 NW 11 14.48 Fair CLR 4.5 -1.4 66% 2 76.48 0.0
01 23:55 NW 7 14.48 Fair CLR 4.6 -1.2 66% 3 76.45 0.0
01 23:35 NW 9 14.48 Fair CLR 4.9 -1.2 65% 3 76.45 0.0
01 23:15 NW 9 14.48 Fair CLR 5.7 -1.5 60% 4 76.45 0.0
01 22:55 NW 7 14.48 Fair CLR 6.7 -1.3 57% 6 76.45 0.0
01 22:35 N 9 14.48 A Few Clouds FEW085 7.2 -0.7 58% 6 76.45 0.0
01 22:15 N 6 14.48 Mostly Cloudy BKN085 7.9 -0.9 54% 76.43 0.0
01 21:55 N 7 14.48 Overcast OVC085 8.4 -0.4 54% 8 76.43 0.0
01 21:35 N 9 16.09 Overcast OVC085 8.9 -0.1 54% 8 76.4 0.0
01 21:15 N 6 16.09 Overcast OVC085 9.2 0.3 54% 76.38 0.0
01 20:55 N 7 16.09 Overcast OVC085 9.2 -0.2 52% 8 76.35 0.0
01 20:35 N 9 16.09 Overcast OVC085 9.9 -0.7 48% 9 76.35 0.0
01 20:15 N 11 12.87 Mostly Cloudy BKN090 9.9 -0.8 48% 9 76.33 0.0
01 19:55 N 13 14.48 Mostly Cloudy BKN090 10.3 -1.4 44% 76.33 0.0
01 19:35 N 13 14.48 Mostly Cloudy BKN085 10.5 -1 45% 76.3 0.0
01 19:15 N 20 14.48 Mostly Cloudy BKN085 11.2 -1.2 42% 76.28 0.0
01 18:55 N 19 14.48 Mostly Cloudy FEW060 BKN090 11.6 -0.7 43% 76.28 0.0
01 18:35 N 22 G 31 14.48 Overcast SCT060 OVC085 12 -1 41% 76.28 0.0
01 18:15 N 13 16.09 Overcast SCT065 SCT080 OVC095 12.2 -1.1 40% 76.28 0.0
01 17:55 N 22 G 31 16.09 Overcast SCT065 OVC095 12.8 -0.9 39% 76.28 0.0
01 17:35 NW 19 16.09 Overcast BKN065 OVC090 12.8 -1.2 38% 76.28 0.0
01 17:15 N 13 16.09 Overcast BKN070 OVC095 12.8 -1.5 37% 76.25 0.0
01 16:55 N 19 16.09 Overcast BKN070 OVC085 12.7 -1.2 38% 76.25 0.0
01 16:35 N 15 16.09 Overcast OVC065 12.6 -1.1 39% 76.25 0.0
01 16:15 NE 20 16.09 Overcast BKN065 OVC085 12.3 -0.8 41% 76.25 0.0
01 15:55 N 22 16.09 Overcast FEW065 OVC090 13 -0.8 39% 76.28 0.0
01 15:35 NW 11 16.09 Mostly Cloudy SCT065 BKN090 12.8 -1.2 38% 76.28 0.0
01 15:15 N 24 G 33 16.09 Mostly Cloudy SCT065 BKN085 13.4 -1.2 37% 76.28 0.0
01 14:55 N 20 16.09 Overcast BKN065 OVC085 12.7 -1 39% 76.28 0.0
01 14:35 N 11 16.09 Overcast FEW060 OVC090 13.5 -1.1 37% 76.28 0.0
01 14:15 N 20 16.09 Overcast SCT060 OVC085 12.9 -0.9 39% 76.28 0.0
01 13:55 N 19 16.09 Overcast SCT060 OVC090 13.3 0.4 42% 76.28 0.0
01 13:35 N 19 G 31 16.09 Overcast FEW055 OVC090 13.5 -0.2 39% 76.28 0.0
01 13:15 N 17 16.09 Overcast OVC090 13.4 0.2 41% 76.28 0.0
01 12:55 N 15 16.09 Mostly Cloudy BKN085 13 0.6 43% 76.28 0.0
01 12:35 N 19 16.09 Overcast FEW048 OVC080 11.8 0.8 47% 76.28 0.0
01 12:15 N 15 16.09 Overcast SCT044 OVC080 11.7 1.9 51% 76.28 0.0
01 11:55 N 19 16.09 Overcast BKN043 BKN055 OVC075 11.8 2.2 52% 76.28 0.0
01 11:35 N 19 G 30 16.09 Mostly Cloudy BKN041 BKN065 12 2.7 53% 76.28 0.0
01 11:15 N 19 16.09 Mostly Cloudy BKN040 BKN065 11.4 2.7 55% 76.28 0.0
01 10:55 NW 17 16.09 Partly Cloudy SCT038 12 2.5 53% 76.25 0.0
01 10:35 N 11 G 30 16.09 Fair CLR 11.3 3.2 58% 76.25 0.0
01 10:15 N 13 16.09 A Few Clouds FEW060 10.9 3 58% 76.25 0.0
01 09:55 NE 13 16.09 Fair CLR 10.3 2.8 60% 76.25 0.0
01 09:35 NE 15 16.09 Fair CLR 10.2 2.5 59% 76.25 0.0
01 09:15 N 13 16.09 Fair CLR 10.1 2.1 58% 76.25 0.0
01 08:55 NW 7 16.09 Fair CLR 9.5 0.8 55% 9 76.25 0.0
01 08:35 W 11 16.09 A Few Clouds FEW080 8.3 1.2 61% 7 76.25 0.0
01 08:15 W 9 16.09 Partly Cloudy SCT080 7.3 1.6 67% 6 76.25 0.0
01 07:55 SW 9 14.48 Mostly Cloudy BKN085 6.4 2.3 75% 5 76.25 0.0
01 07:35 SW 7 14.48 Mostly Cloudy BKN090 5.6 2.3 80% 4 76.25 0.0
01 07:15 SW 6 12.87 Partly Cloudy SCT090 4 2.6 91% 76.25 0.0
01 06:55 Calm 12.87 Overcast FEW070 OVC095 3.6 2.2 91% 76.25 0.0
01 06:35 Calm 12.87 Overcast BKN070 OVC090 3.7 2.6 93% 76.25 0.0
01 06:15 Calm 14.48 Overcast BKN070 OVC095 3.2 2.2 93% 76.25 0.0
01 05:55 Calm 14.48 Mostly Cloudy BKN095 3 1.4 89% 76.23 0.0
01 05:35 Calm 16.09 Mostly Cloudy FEW060 BKN095 3.9 1.3 83% 76.25 0.0
01 05:15 Calm 16.09 Overcast BKN060 OVC090 3.3 2 91% 76.25 0.0
01 04:55 W 6 16.09 Mostly Cloudy BKN060 BKN090 2.6 1.1 90% 76.25 0.0
01 04:35 Calm 16.09 Mostly Cloudy FEW070 BKN090 3 1 87% 76.25 0.0
01 04:15 Calm 16.09 Partly Cloudy SCT070 SCT085 3 1.6 91% 76.25 0.0
01 03:55 Calm 16.09 Mostly Cloudy SCT060 BKN085 4.4 1.4 81% 76.25 0.0
01 03:35 N 6 16.09 Overcast BKN060 OVC075 4.9 1.5 79% 76.25 0.0
01 03:15 N 13 16.09 Overcast BKN065 OVC080 5.2 1.8 79% 3 76.25 0.0
01 02:55 W 11 16.09 Overcast BKN070 OVC085 4.9 1.2 77% 3 76.25 0.0
Date Time (cdt) Wind (kph) Vis. (km) Weather Sky Cond. Air Dwpt Max. Min. Relative Humidity Wind Chill (°C) Heat Index (°C) altimeter (cm) sea level (mb) 1 hr 3 hr 6 hr
6 hour
Temperature (ºC) Pressure Precipitation (cm)